Time;durP1;ratioP1;P1;durP2;ratioP2;P2;SDS_P1;SDS_P2;PMS_P1;PMS_P2;Temp;Humidity;BMP_temperature;BMP_pressure;BME280_temperature;BME280_humidity;BME280_pressure;Samples;Min_cycle;Max_cycle;Signal;HPM_P1;HPM_P2
2022/10/31 00:01:51;;;;;;;;;;;;;;;21.13;28.96;98171.75;4998529;28;832;-80
2022/10/31 00:07:52;;;;;;;;;;;;;;;20.95;29.10;98172.16;5014941;28;940;-80
2022/10/31 00:10:18;;;;;;;;;;;;;;;21.40;28.46;98169.59;4998554;28;1380;-80
2022/10/31 00:12:43;;;;;;;;;;;;;;;21.58;28.10;98171.97;4978833;28;1911;-80
2022/10/31 00:15:09;;;;;;;;;;;;;;;21.26;28.84;98181.97;4987067;28;1166;-80
2022/10/31 00:17:35;;;;;;;;;;;;;;;21.11;28.89;98175.03;4995345;28;910;-80
2022/10/31 00:20:01;;;;;;;;;;;;;;;20.90;29.27;98175.50;4995570;28;1423;-80
2022/10/31 00:22:26;;;;;;;;;;;;;;;20.95;28.92;98172.97;4979166;28;1266;-80
2022/10/31 00:24:51;;;;;;;;;;;;;;;20.92;29.36;98168.16;4979003;28;1242;-80
2022/10/31 00:27:17;;;;;;;;;;;;;;;21.14;29.11;98160.03;4995128;28;1211;-79
2022/10/31 00:29:42;;;;;;;;;;;;;;;21.40;28.71;98168.75;4978749;28;794;-80
2022/10/31 00:32:08;;;;;;;;;;;;;;;21.33;28.51;98164.84;4995241;28;1914;-80
2022/10/31 00:34:33;;;;;;;;;;;;;;;21.10;28.98;98167.00;5014365;28;917;-80
2022/10/31 00:36:59;;;;;;;;;;;;;;;21.12;29.25;98165.31;5014674;28;1235;-80
2022/10/31 00:39:24;;;;;;;;;;;;;;;21.07;29.00;98163.00;5011503;28;1179;-80
2022/10/31 00:41:50;;;;;;;;;;;;;;;21.05;29.01;98165.47;4994975;28;875;-80
2022/10/31 00:44:15;;;;;;;;;;;;;;;21.23;28.66;98165.88;4995027;28;1182;-80
2022/10/31 00:46:40;;;;;;;;;;;;;;;21.47;28.45;98157.28;5011039;28;1089;-80
2022/10/31 00:49:06;;;;;;;;;;;;;;;21.17;28.75;98158.34;5011444;28;838;-80
2022/10/31 00:51:32;;;;;;;;;;;;;;;20.92;29.41;98164.53;5011170;28;1967;-80
2022/10/31 00:53:57;;;;;;;;;;;;;;;20.88;29.42;98155.31;5013777;28;1438;-80
2022/10/31 00:56:23;;;;;;;;;;;;;;;21.01;29.34;98159.09;5035232;28;1047;-80
2022/10/31 00:58:48;;;;;;;;;;;;;;;21.29;28.85;98166.94;5018143;28;918;-80
2022/10/31 01:01:14;;;;;;;;;;;;;;;21.63;28.47;98156.50;5034965;28;1213;-80
2022/10/31 01:03:39;;;;;;;;;;;;;;;21.04;29.23;98172.38;5018661;28;1257;-81
2022/10/31 01:06:10;;;;;;;;;;;;;;;21.12;28.88;98168.16;5003402;28;1257;-80
2022/10/31 01:08:35;;;;;;;;;;;;;;;21.03;29.34;98168.72;5014857;28;1432;-80
2022/10/31 01:11:05;;;;;;;;;;;;;;;21.13;29.04;98169.72;4990280;28;1910;-80
2022/10/31 01:13:31;;;;;;;;;;;;;;;21.26;28.69;98170.66;4985744;28;1187;-80
2022/10/31 01:15:57;;;;;;;;;;;;;;;21.49;28.35;98160.47;5001720;28;842;-80
2022/10/31 01:18:24;;;;;;;;;;;;;;;21.53;28.27;98164.00;4985804;28;1254;-80
2022/10/31 01:20:59;;;;;;;;;;;;;;;21.39;28.56;98158.69;5018476;28;1434;-80
2022/10/31 01:23:24;;;;;;;;;;;;;;;20.86;29.71;98166.28;4985570;28;1139;-80
2022/10/31 01:25:50;;;;;;;;;;;;;;;20.93;29.38;98163.31;4985625;28;1218;-80
2022/10/31 01:28:15;;;;;;;;;;;;;;;21.01;29.10;98164.75;4998840;28;816;-80
2022/10/31 01:30:41;;;;;;;;;;;;;;;20.90;29.44;98167.03;4985651;28;1235;-80
2022/10/31 01:33:06;;;;;;;;;;;;;;;21.13;29.19;98154.78;5017518;28;1898;-80
2022/10/31 01:35:31;;;;;;;;;;;;;;;21.43;28.59;98163.03;4985282;28;1396;-80
2022/10/31 01:37:57;;;;;;;;;;;;;;;21.42;28.46;98163.47;4985472;28;1020;-80
2022/10/31 01:40:29;;;;;;;;;;;;;;;21.29;28.91;98160.47;5031775;28;955;-80
2022/10/31 01:42:54;;;;;;;;;;;;;;;21.03;29.39;98167.94;5038671;28;1272;-80
2022/10/31 01:45:21;;;;;;;;;;;;;;;20.96;29.18;98173.75;5055466;28;1428;-80
2022/10/31 01:47:46;;;;;;;;;;;;;;;21.30;28.76;98165.75;5037948;28;1178;-80
2022/10/31 01:50:24;;;;;;;;;;;;;;;21.61;28.32;98168.28;5022367;28;1191;-80
2022/10/31 01:52:49;;;;;;;;;;;;;;;21.54;28.63;98171.25;5039282;28;1917;-80
2022/10/31 01:55:19;;;;;;;;;;;;;;;20.95;29.18;98166.50;5022157;28;1245;-80
2022/10/31 01:57:46;;;;;;;;;;;;;;;21.08;29.12;98167.41;5021776;28;1122;-80
2022/10/31 02:00:12;;;;;;;;;;;;;;;21.10;28.95;98161.34;5021535;28;1130;-80
2022/10/31 02:02:41;;;;;;;;;;;;;;;21.03;29.37;98157.41;5017021;28;1008;-80
2022/10/31 02:05:08;;;;;;;;;;;;;;;21.22;28.96;98157.81;5016978;28;793;-80
2022/10/31 02:07:35;;;;;;;;;;;;;;;21.54;28.57;98162.78;5001069;28;1142;-80
2022/10/31 02:10:00;;;;;;;;;;;;;;;21.47;28.34;98162.94;5000791;28;1051;-80
2022/10/31 02:12:26;;;;;;;;;;;;;;;21.23;28.98;98160.22;5016901;28;1926;-80
2022/10/31 02:14:57;;;;;;;;;;;;;;;20.96;29.28;98168.09;5000545;28;1235;-80
2022/10/31 02:17:24;;;;;;;;;;;;;;;20.79;29.72;98167.25;5000903;28;1058;-80
2022/10/31 02:19:52;;;;;;;;;;;;;;;20.88;29.49;98172.28;5000491;28;823;-80
2022/10/31 02:22:22;;;;;;;;;;;;;;;21.13;29.32;98166.91;5000824;28;1327;-80
2022/10/31 02:25:03;;;;;;;;;;;;;;;21.32;29.09;98166.09;5000795;28;1192;-80
2022/10/31 02:27:31;;;;;;;;;;;;;;;21.24;28.73;98178.81;5016734;28;1055;-79
2022/10/31 02:30:00;;;;;;;;;;;;;;;20.89;29.50;98162.59;5016767;28;1399;-80
2022/10/31 02:32:27;;;;;;;;;;;;;;;21.00;29.28;98163.16;5016988;28;1922;-80
2022/10/31 02:34:57;;;;;;;;;;;;;;;21.00;29.33;98168.81;5020903;28;1168;-80
2022/10/31 02:37:25;;;;;;;;;;;;;;;20.86;29.41;98169.13;5037601;28;1148;-80
2022/10/31 02:40:04;;;;;;;;;;;;;;;21.45;28.71;98165.41;5037299;28;755;-80
2022/10/31 02:43:06;;;;;;;;;;;;;;;21.30;28.72;98165.75;5037334;28;1445;-79
2022/10/31 02:45:36;;;;;;;;;;;;;;;21.09;29.03;98174.69;5037273;28;1115;-80
2022/10/31 02:48:04;;;;;;;;;;;;;;;21.08;29.03;98175.91;5070181;28;1243;-80
2022/10/31 02:54:14;;;;;;;;;;;;;;;21.31;28.67;98180.69;5038495;28;637;-80
2022/10/31 02:56:40;;;;;;;;;;;;;;;21.70;28.27;98188.25;5020419;28;1264;-80
2022/10/31 02:59:06;;;;;;;;;;;;;;;21.23;28.77;98176.41;5037047;28;854;-80
2022/10/31 03:01:50;;;;;;;;;;;;;;;21.20;28.94;98189.41;5044842;28;1157;-80
2022/10/31 03:04:15;;;;;;;;;;;;;;;21.06;29.24;98189.69;5057087;28;1145;-80
2022/10/31 03:06:41;;;;;;;;;;;;;;;21.07;29.24;98177.16;5040190;28;1107;-80
2022/10/31 03:09:11;;;;;;;;;;;;;;;21.41;28.46;98188.16;5057309;28;1177;-80
2022/10/31 03:11:46;;;;;;;;;;;;;;;21.52;28.35;98182.25;5040065;28;1981;-80
2022/10/31 03:14:31;;;;;;;;;;;;;;;21.37;28.43;98180.97;5023599;28;1149;-80
2022/10/31 03:17:00;;;;;;;;;;;;;;;21.11;28.84;98185.56;5040052;28;1229;-80
2022/10/31 03:19:25;;;;;;;;;;;;;;;21.03;28.91;98190.56;5039900;28;1134;-79
2022/10/31 03:21:52;;;;;;;;;;;;;;;20.91;29.08;98182.75;5039581;28;1357;-79
2022/10/31 03:24:21;;;;;;;;;;;;;;;21.17;28.71;98197.97;5040437;28;1181;-80
2022/10/31 03:26:48;;;;;;;;;;;;;;;21.44;28.24;98194.97;5056524;28;731;-80
2022/10/31 03:29:15;;;;;;;;;;;;;;;21.49;28.52;98194.44;5039861;28;1481;-80
2022/10/31 03:31:51;;;;;;;;;;;;;;;21.19;28.53;98201.13;5039533;28;1906;-80
2022/10/31 03:34:16;;;;;;;;;;;;;;;21.16;28.91;98197.16;5039797;28;1253;-80
2022/10/31 03:36:42;;;;;;;;;;;;;;;21.09;28.72;98194.50;5056454;28;727;-80
2022/10/31 03:39:08;;;;;;;;;;;;;;;20.97;29.10;98197.97;5055978;28;716;-79
2022/10/31 03:41:34;;;;;;;;;;;;;;;20.74;29.25;98205.31;5022990;28;1118;-80
2022/10/31 03:44:02;;;;;;;;;;;;;;;21.06;28.90;98206.69;5038152;28;1055;-79
2022/10/31 03:46:28;;;;;;;;;;;;;;;21.26;28.42;98210.28;5038191;28;1325;-80
2022/10/31 03:48:56;;;;;;;;;;;;;;;21.46;28.37;98209.47;5037645;28;1087;-81
2022/10/31 03:51:32;;;;;;;;;;;;;;;21.31;28.41;98200.50;5021435;28;1973;-81
2022/10/31 03:54:24;;;;;;;;;;;;;;;21.01;28.86;98218.50;5037016;28;1249;-81
2022/10/31 03:56:51;;;;;;;;;;;;;;;21.03;28.74;98216.03;5020142;28;1107;-81
2022/10/31 03:59:21;;;;;;;;;;;;;;;20.79;29.09;98215.31;5037973;28;1133;-80
2022/10/31 04:01:48;;;;;;;;;;;;;;;21.35;28.28;98223.06;5036486;28;1383;-81
2022/10/31 04:04:14;;;;;;;;;;;;;;;21.43;28.03;98213.19;5020424;28;1107;-81
2022/10/31 04:06:41;;;;;;;;;;;;;;;21.17;28.38;98218.56;5037019;28;1204;-81
2022/10/31 04:09:07;;;;;;;;;;;;;;;20.98;28.68;98225.03;5036644;28;1202;-81
2022/10/31 04:11:37;;;;;;;;;;;;;;;21.06;28.55;98223.66;5036639;28;1963;-81
2022/10/31 04:14:38;;;;;;;;;;;;;;;21.04;28.79;98223.31;4969780;28;787;-81
2022/10/31 04:17:05;;;;;;;;;;;;;;;21.50;28.24;98230.81;4994039;28;1463;-81
2022/10/31 04:19:35;;;;;;;;;;;;;;;21.41;28.32;98227.00;4994303;28;1154;-81
2022/10/31 04:22:01;;;;;;;;;;;;;;;21.65;27.64;98242.59;4994703;28;1191;-81
2022/10/31 04:24:26;;;;;;;;;;;;;;;21.06;28.72;98246.28;5010832;28;1224;-81
2022/10/31 04:26:52;;;;;;;;;;;;;;;20.98;28.94;98244.81;4995293;28;1092;-81
2022/10/31 04:29:18;;;;;;;;;;;;;;;20.95;29.21;98243.69;4993924;28;1120;-81
2022/10/31 04:31:44;;;;;;;;;;;;;;;21.22;28.70;98237.84;4995160;28;1910;-81
2022/10/31 04:34:09;;;;;;;;;;;;;;;21.27;28.79;98245.84;4995132;28;1300;-81
2022/10/31 04:36:35;;;;;;;;;;;;;;;21.52;28.20;98250.19;4992031;28;1119;-81
2022/10/31 04:39:01;;;;;;;;;;;;;;;21.12;28.85;98249.41;5008215;28;1214;-81
2022/10/31 04:41:37;;;;;;;;;;;;;;;20.84;29.34;98262.91;5005889;28;1270;-81
2022/10/31 04:44:13;;;;;;;;;;;;;;;20.92;29.31;98263.53;5005768;28;1269;-81
2022/10/31 04:46:38;;;;;;;;;;;;;;;21.52;28.16;98261.50;5007977;28;1161;-81
2022/10/31 04:49:04;;;;;;;;;;;;;;;21.37;28.60;98271.56;5022592;28;1152;-81
2022/10/31 04:51:30;;;;;;;;;;;;;;;21.45;28.30;98258.81;5017890;28;1969;-81
2022/10/31 04:53:56;;;;;;;;;;;;;;;21.31;28.74;98263.56;5017894;28;1528;-81
2022/10/31 04:56:40;;;;;;;;;;;;;;;20.73;29.75;98263.09;5034632;28;593;-81
2022/10/31 04:59:13;;;;;;;;;;;;;;;20.77;29.62;98269.47;5033293;28;1360;-81
2022/10/31 05:01:51;;;;;;;;;;;;;;;20.97;29.08;98269.50;5018218;28;1251;-81
2022/10/31 05:04:23;;;;;;;;;;;;;;;21.44;28.63;98258.03;5033169;28;1307;-81
2022/10/31 05:06:49;;;;;;;;;;;;;;;21.56;28.28;98277.19;5014406;28;1555;-81
2022/10/31 05:09:14;;;;;;;;;;;;;;;21.19;28.90;98267.03;4998256;28;1232;-81
2022/10/31 05:11:39;;;;;;;;;;;;;;;21.10;29.23;98274.50;4997952;28;1903;-80
2022/10/31 05:14:18;;;;;;;;;;;;;;;21.29;28.91;98282.97;5022913;28;1153;-81
2022/10/31 05:17:04;;;;;;;;;;;;;;;20.92;29.11;98286.97;5053449;28;1005;-81
2022/10/31 05:19:49;;;;;;;;;;;;;;;21.45;28.51;98289.97;4975099;28;1127;-81
2022/10/31 05:22:34;;;;;;;;;;;;;;;21.49;28.43;98290.69;4988886;28;970;-81
2022/10/31 05:25:00;;;;;;;;;;;;;;;21.32;28.51;98293.47;4991622;28;1103;-80
2022/10/31 05:27:25;;;;;;;;;;;;;;;21.11;28.88;98293.88;4958979;28;1060;-81
2022/10/31 05:29:51;;;;;;;;;;;;;;;21.22;29.07;98300.13;4975486;28;1293;-81
2022/10/31 05:32:16;;;;;;;;;;;;;;;21.24;28.72;98303.31;4991259;28;1993;-81
2022/10/31 05:35:02;;;;;;;;;;;;;;;21.28;28.86;98306.06;4994388;28;920;-81
2022/10/31 05:37:48;;;;;;;;;;;;;;;21.63;28.18;98313.03;4984719;28;1042;-81
2022/10/31 05:40:14;;;;;;;;;;;;;;;21.50;28.27;98320.59;4956680;28;1315;-81
2022/10/31 05:42:40;;;;;;;;;;;;;;;20.98;29.25;98326.84;4959179;29;1144;-81
2022/10/31 05:45:07;;;;;;;;;;;;;;;21.00;29.21;98322.38;4959268;29;1199;-81
2022/10/31 05:47:54;;;;;;;;;;;;;;;20.96;29.40;98326.50;4945003;29;1286;-81
2022/10/31 05:54:20;;;;;;;;;;;;;;;21.30;28.62;98341.22;4920893;29;959;-80
2022/10/31 05:56:46;;;;;;;;;;;;;;;21.34;28.56;98343.97;4897038;29;1341;-81
2022/10/31 05:59:11;;;;;;;;;;;;;;;21.13;28.95;98342.34;4901731;29;1195;-81
2022/10/31 06:01:38;;;;;;;;;;;;;;;21.11;28.98;98339.16;4901815;29;1287;-82
2022/10/31 06:04:09;;;;;;;;;;;;;;;21.33;28.91;98334.69;4901872;29;1236;-81
2022/10/31 06:06:47;;;;;;;;;;;;;;;21.47;28.44;98339.25;4901956;29;1113;-81
2022/10/31 06:09:13;;;;;;;;;;;;;;;21.05;29.12;98346.53;4901828;29;1212;-81
2022/10/31 06:11:38;;;;;;;;;;;;;;;21.13;29.11;98336.69;4930738;29;1902;-81
2022/10/31 06:14:04;;;;;;;;;;;;;;;21.10;29.06;98329.06;4929073;28;1084;-81
2022/10/31 06:16:48;;;;;;;;;;;;;;;21.32;28.75;98327.44;4950552;28;722;-81
2022/10/31 06:19:39;;;;;;;;;;;;;;;21.30;29.02;98341.22;4964459;28;817;-81
2022/10/31 06:22:05;;;;;;;;;;;;;;;21.35;28.89;98342.75;4977292;28;1125;-81
2022/10/31 06:24:32;;;;;;;;;;;;;;;21.01;29.19;98346.59;4945852;28;1127;-81
2022/10/31 06:27:04;;;;;;;;;;;;;;;21.05;28.98;98340.88;4973093;28;1205;-80
2022/10/31 06:29:30;;;;;;;;;;;;;;;21.02;29.33;98347.41;5058043;28;1079;-81
2022/10/31 06:32:03;;;;;;;;;;;;;;;20.92;29.29;98357.69;5042019;28;1979;-81
2022/10/31 06:34:31;;;;;;;;;;;;;;;21.29;28.84;98359.41;5057874;28;1400;-81
2022/10/31 06:36:57;;;;;;;;;;;;;;;21.36;28.74;98360.53;5057710;28;1251;-81
2022/10/31 06:39:24;;;;;;;;;;;;;;;21.29;28.83;98367.88;5059909;28;1251;-81
2022/10/31 06:41:50;;;;;;;;;;;;;;;21.16;29.10;98383.91;5076356;28;1088;-81
2022/10/31 06:44:18;;;;;;;;;;;;;;;21.06;29.34;98382.88;5059386;28;1169;-81
2022/10/31 06:46:45;;;;;;;;;;;;;;;21.12;29.10;98386.00;5059511;28;1183;-81
2022/10/31 06:49:29;;;;;;;;;;;;;;;21.39;28.85;98382.31;5047673;28;919;-81
2022/10/31 06:51:59;;;;;;;;;;;;;;;21.54;28.61;98380.78;5075189;28;1910;-81
2022/10/31 06:54:25;;;;;;;;;;;;;;;21.41;28.55;98385.50;5075872;28;1130;-81
2022/10/31 06:56:50;;;;;;;;;;;;;;;21.19;28.94;98394.38;5042763;28;1063;-81
2022/10/31 06:59:16;;;;;;;;;;;;;;;21.13;29.17;98393.25;5075726;28;793;-81
2022/10/31 07:02:16;;;;;;;;;;;;;;;20.92;29.50;98388.00;5043756;28;656;-81
2022/10/31 07:04:42;;;;;;;;;;;;;;;21.44;28.60;98390.28;5038764;28;1177;-81
2022/10/31 07:07:11;;;;;;;;;;;;;;;21.44;28.58;98390.28;5023043;28;1374;-81
2022/10/31 07:09:38;;;;;;;;;;;;;;;21.29;28.84;98387.69;5035037;28;1158;-81
2022/10/31 07:12:04;;;;;;;;;;;;;;;21.22;29.22;98399.16;5003142;28;1902;-81
2022/10/31 07:14:33;;;;;;;;;;;;;;;21.16;29.08;98392.41;5019785;28;1091;-81
2022/10/31 07:17:00;;;;;;;;;;;;;;;21.02;29.21;98395.50;5036079;28;1337;-81
2022/10/31 07:19:31;;;;;;;;;;;;;;;20.72;29.85;98391.56;5019073;28;1379;-81
2022/10/31 07:21:57;;;;;;;;;;;;;;;21.28;28.96;98397.44;5035758;28;1176;-81
2022/10/31 07:24:25;;;;;;;;;;;;;;;21.77;28.01;98391.25;5003514;28;1273;-81
2022/10/31 07:27:10;;;;;;;;;;;;;;;21.46;28.62;98387.84;5021591;28;590;-81
2022/10/31 07:29:36;;;;;;;;;;;;;;;21.21;28.96;98394.75;5018900;28;1251;-81
2022/10/31 07:32:03;;;;;;;;;;;;;;;21.08;29.22;98388.09;5019663;28;1913;-81
2022/10/31 07:34:30;;;;;;;;;;;;;;;21.04;29.56;98382.53;5003190;28;1421;-82
2022/10/31 07:37:11;;;;;;;;;;;;;;;20.81;29.64;98383.31;5068442;28;1441;-81
2022/10/31 07:39:37;;;;;;;;;;;;;;;21.49;28.84;98376.41;5039375;28;1323;-81
2022/10/31 07:42:03;;;;;;;;;;;;;;;21.63;28.39;98392.34;5039841;28;1229;-81
2022/10/31 07:44:29;;;;;;;;;;;;;;;21.22;29.28;98402.00;5056278;28;1384;-81
2022/10/31 07:47:39;;;;;;;;;;;;;;;20.89;29.61;98398.16;5023766;28;1203;-80
2022/10/31 07:50:24;;;;;;;;;;;;;;;20.95;29.71;98409.78;5035028;28;613;-81
2022/10/31 07:53:09;;;;;;;;;;;;;;;20.97;29.33;98405.28;5034854;28;1918;-81
2022/10/31 07:55:41;;;;;;;;;;;;;;;21.41;28.79;98402.50;5034924;28;593;-81
2022/10/31 07:58:10;;;;;;;;;;;;;;;21.47;28.82;98398.72;5018473;28;987;-81
2022/10/31 08:00:38;;;;;;;;;;;;;;;21.38;28.94;98392.03;5018785;28;1042;-81
2022/10/31 08:03:05;;;;;;;;;;;;;;;21.06;29.66;98404.72;5018144;28;1256;-81
2022/10/31 08:06:02;;;;;;;;;;;;;;;20.99;29.34;98404.88;5015267;28;1079;-81
2022/10/31 08:08:48;;;;;;;;;;;;;;;21.03;29.47;98399.91;4987647;28;1101;-81
2022/10/31 08:11:13;;;;;;;;;;;;;;;20.79;29.98;98405.59;4998600;28;1906;-81
2022/10/31 08:13:40;;;;;;;;;;;;;;;21.09;29.60;98403.88;4998703;28;1100;-81
2022/10/31 08:16:07;;;;;;;;;;;;;;;21.47;28.90;98400.75;4998611;28;1124;-81
2022/10/31 08:18:37;;;;;;;;;;;;;;;21.33;29.23;98396.97;5002311;28;1416;-81
2022/10/31 08:21:03;;;;;;;;;;;;;;;21.13;29.38;98404.59;5018952;28;1336;-81
2022/10/31 08:23:28;;;;;;;;;;;;;;;21.18;29.16;98408.94;5034948;28;1200;-81
2022/10/31 08:25:54;;;;;;;;;;;;;;;21.10;29.33;98411.13;5034797;28;1303;-81
2022/10/31 08:28:22;;;;;;;;;;;;;;;21.09;29.42;98403.88;5018485;28;1408;-81
2022/10/31 08:30:49;;;;;;;;;;;;;;;21.50;29.02;98394.22;5018029;28;1545;-81
2022/10/31 08:33:34;;;;;;;;;;;;;;;21.27;29.06;98403.53;5020372;28;590;-81
2022/10/31 08:36:17;;;;;;;;;;;;;;;20.95;29.72;98404.13;5033937;28;957;-81
2022/10/31 08:38:58;;;;;;;;;;;;;;;20.95;29.73;98415.44;5017429;28;1371;-81
2022/10/31 08:41:23;;;;;;;;;;;;;;;21.04;29.62;98418.50;5030439;28;1106;-81
2022/10/31 08:43:49;;;;;;;;;;;;;;;21.14;29.57;98423.19;5037535;28;1177;-81
2022/10/31 08:46:17;;;;;;;;;;;;;;;21.24;29.42;98427.84;5037375;28;1290;-81
2022/10/31 08:48:43;;;;;;;;;;;;;;;21.27;29.11;98421.31;5077019;28;1266;-81
2022/10/31 08:51:09;;;;;;;;;;;;;;;21.18;29.42;98418.22;5094333;28;1975;-81
2022/10/31 08:53:35;;;;;;;;;;;;;;;21.13;29.58;98410.25;5053957;28;1133;-81
2022/10/31 08:56:23;;;;;;;;;;;;;;;21.09;29.32;98409.53;5039850;28;1065;-81
2022/10/31 08:58:49;;;;;;;;;;;;;;;21.10;29.57;98416.78;5020675;28;1170;-81
2022/10/31 09:01:15;;;;;;;;;;;;;;;21.40;28.94;98417.88;5021232;28;1294;-80
2022/10/31 09:03:42;;;;;;;;;;;;;;;21.32;29.30;98412.34;4978641;28;1267;-81
2022/10/31 09:06:09;;;;;;;;;;;;;;;21.54;28.96;98407.06;4978606;28;1238;-81
2022/10/31 09:08:35;;;;;;;;;;;;;;;21.45;29.13;98406.03;4978412;28;1237;-81
2022/10/31 09:11:01;;;;;;;;;;;;;;;21.14;29.73;98411.88;4978387;28;1136;-81
2022/10/31 09:13:55;;;;;;;;;;;;;;;20.77;30.14;98412.88;4940992;29;978;-81
2022/10/31 09:16:56;;;;;;;;;;;;;;;20.98;29.82;98408.91;4932727;29;1121;-81
2022/10/31 09:19:30;;;;;;;;;;;;;;;20.88;29.94;98410.72;4920922;29;1324;-81
2022/10/31 09:21:55;;;;;;;;;;;;;;;21.14;29.48;98417.53;4921010;29;1173;-81
2022/10/31 09:24:21;;;;;;;;;;;;;;;21.12;29.70;98411.47;4905504;29;1265;-81
2022/10/31 09:26:47;;;;;;;;;;;;;;;21.32;29.28;98412.34;4936745;29;1136;-81
2022/10/31 09:29:17;;;;;;;;;;;;;;;21.35;29.18;98392.88;4936172;29;1068;-81
2022/10/31 09:31:44;;;;;;;;;;;;;;;21.09;29.68;98398.22;4920724;29;1902;-81
2022/10/31 09:34:24;;;;;;;;;;;;;;;21.00;29.72;98404.41;4935039;29;1082;-81
2022/10/31 09:37:08;;;;;;;;;;;;;;;21.01;29.99;98396.72;4975261;28;1274;-81
2022/10/31 09:39:34;;;;;;;;;;;;;;;20.80;29.91;98407.19;4958470;29;828;-81
2022/10/31 09:42:14;;;;;;;;;;;;;;;21.30;29.32;98403.50;4974869;28;1096;-81
2022/10/31 09:44:39;;;;;;;;;;;;;;;21.45;29.23;98408.88;4974992;28;1190;-81
2022/10/31 09:47:30;;;;;;;;;;;;;;;21.20;29.29;98400.84;4974241;28;1232;-81
2022/10/31 09:50:20;;;;;;;;;;;;;;;20.94;29.85;98400.50;4978476;28;1230;-81
2022/10/31 09:53:00;;;;;;;;;;;;;;;20.85;29.92;98399.44;5013292;28;1975;-81
2022/10/31 09:55:36;;;;;;;;;;;;;;;20.94;30.08;98394.03;4997197;28;968;-81
2022/10/31 09:58:04;;;;;;;;;;;;;;;21.05;29.55;98386.16;4997555;28;1038;-81
2022/10/31 10:00:31;;;;;;;;;;;;;;;20.94;30.04;98391.22;5013671;28;914;-81
2022/10/31 10:02:59;;;;;;;;;;;;;;;21.32;29.52;98384.03;4997261;28;1423;-81
2022/10/31 10:05:30;;;;;;;;;;;;;;;21.63;29.05;98375.34;5013629;28;743;-81
2022/10/31 10:08:03;;;;;;;;;;;;;;;21.16;29.56;98386.75;5013584;28;1134;-81
2022/10/31 10:11:06;;;;;;;;;;;;;;;21.06;29.94;98387.75;4993493;28;1383;-81
2022/10/31 10:14:11;;;;;;;;;;;;;;;21.08;29.68;98379.63;4993962;28;1309;-82
2022/10/31 10:16:55;;;;;;;;;;;;;;;21.02;29.68;98387.00;5012265;28;1340;-81
2022/10/31 10:19:23;;;;;;;;;;;;;;;21.52;29.09;98386.09;5013808;28;1017;-81
2022/10/31 10:22:04;;;;;;;;;;;;;;;21.47;29.18;98378.09;4996642;28;795;-81
2022/10/31 10:24:33;;;;;;;;;;;;;;;21.36;29.15;98381.16;5013265;28;838;-82
2022/10/31 10:27:20;;;;;;;;;;;;;;;20.97;29.93;98384.69;5051582;28;1272;-82
2022/10/31 10:30:02;;;;;;;;;;;;;;;20.98;29.98;98374.94;5073730;28;1243;-83
2022/10/31 10:32:28;;;;;;;;;;;;;;;21.08;29.61;98382.44;5090258;28;1986;-82
2022/10/31 10:35:14;;;;;;;;;;;;;;;20.90;29.93;98373.50;5090475;28;815;-82
2022/10/31 10:37:40;;;;;;;;;;;;;;;21.21;29.49;98380.59;5058008;28;1122;-82
2022/10/31 10:40:12;;;;;;;;;;;;;;;21.51;29.00;98373.97;5057907;28;846;-82
2022/10/31 10:48:15;;;;;;;;;;;;;;;20.95;29.97;98373.81;5071389;28;1144;-82
2022/10/31 10:50:50;;;;;;;;;;;;;;;21.17;29.67;98371.38;5058066;28;807;-82
2022/10/31 10:53:21;;;;;;;;;;;;;;;20.93;29.95;98372.63;5073641;28;1914;-82
2022/10/31 10:55:50;;;;;;;;;;;;;;;21.51;29.42;98367.50;5090711;28;798;-80
2022/10/31 10:58:16;;;;;;;;;;;;;;;21.59;29.01;98374.63;5090733;28;1216;-80
2022/10/31 11:00:42;;;;;;;;;;;;;;;21.30;29.34;98366.72;5056825;28;1111;-80
2022/10/31 11:03:07;;;;;;;;;;;;;;;21.12;29.96;98366.22;5090432;28;758;-80
2022/10/31 11:05:42;;;;;;;;;;;;;;;21.04;30.22;98356.28;5057093;28;1150;-79
2022/10/31 11:08:07;;;;;;;;;;;;;;;21.06;30.04;98359.47;5073485;28;794;-80
2022/10/31 11:10:33;;;;;;;;;;;;;;;21.06;30.36;98363.09;5073399;28;699;-80
2022/10/31 11:13:06;;;;;;;;;;;;;;;21.07;30.03;98366.72;5073150;28;1965;-80
2022/10/31 11:15:35;;;;;;;;;;;;;;;21.64;29.24;98354.28;5056595;28;1449;-80
2022/10/31 11:18:00;;;;;;;;;;;;;;;21.46;29.36;98353.88;5073510;28;1200;-80
2022/10/31 11:20:35;;;;;;;;;;;;;;;21.36;29.54;98355.69;5090005;28;727;-80
2022/10/31 11:23:05;;;;;;;;;;;;;;;21.16;29.84;98352.78;5057733;28;703;-80
2022/10/31 11:25:31;;;;;;;;;;;;;;;21.07;30.10;98350.53;5072978;28;759;-80
2022/10/31 11:28:04;;;;;;;;;;;;;;;21.01;30.23;98355.09;5090341;28;833;-80
2022/10/31 11:30:29;;;;;;;;;;;;;;;21.06;30.06;98353.78;5089754;28;739;-80
2022/10/31 11:32:55;;;;;;;;;;;;;;;21.24;29.77;98351.44;5073107;28;1906;-80
2022/10/31 11:35:20;;;;;;;;;;;;;;;21.55;29.57;98354.06;5057526;28;798;-80
2022/10/31 11:37:46;;;;;;;;;;;;;;;21.30;29.65;98352.56;5073010;28;1122;-80
2022/10/31 11:40:22;;;;;;;;;;;;;;;21.36;29.58;98349.22;5073075;28;1007;-80
2022/10/31 11:42:47;;;;;;;;;;;;;;;21.15;30.08;98351.19;5089645;28;755;-80
2022/10/31 11:45:17;;;;;;;;;;;;;;;21.02;30.33;98355.88;5089367;28;909;-79
2022/10/31 11:47:44;;;;;;;;;;;;;;;21.07;30.31;98346.91;5089469;28;1323;-79
2022/10/31 11:50:10;;;;;;;;;;;;;;;21.40;29.67;98347.09;5056975;28;889;-80
2022/10/31 11:52:37;;;;;;;;;;;;;;;21.42;29.46;98347.47;5089035;28;1902;-80
2022/10/31 11:55:12;;;;;;;;;;;;;;;21.14;29.99;98338.28;5072187;28;840;-79
2022/10/31 11:57:44;;;;;;;;;;;;;;;21.05;30.36;98346.53;5056843;28;715;-80
2022/10/31 12:00:25;;;;;;;;;;;;;;;21.10;29.98;98343.22;5055985;28;786;-79
2022/10/31 12:02:51;;;;;;;;;;;;;;;20.91;30.33;98352.47;5057575;28;739;-79
2022/10/31 12:05:21;;;;;;;;;;;;;;;20.92;30.36;98356.88;5072618;28;1263;-80
2022/10/31 12:07:47;;;;;;;;;;;;;;;21.16;30.25;98343.50;5089260;28;743;-80
2022/10/31 12:10:12;;;;;;;;;;;;;;;21.25;30.13;98333.22;5089252;28;771;-80
2022/10/31 12:12:57;;;;;;;;;;;;;;;21.40;29.86;98342.25;5089070;28;1910;-79
2022/10/31 12:15:22;;;;;;;;;;;;;;;21.18;29.86;98335.38;5057102;28;719;-80
2022/10/31 12:17:47;;;;;;;;;;;;;;;21.57;30.14;98335.41;5055812;28;897;-80
2022/10/31 12:20:20;;;;;;;;;;;;;;;22.02;29.86;98334.84;5055828;28;989;-78
2022/10/31 12:23:03;;;;;;;;;;;;;;;22.08;30.27;98329.44;5055328;28;891;-78
2022/10/31 12:25:47;;;;;;;;;;;;;;;21.88;31.12;98334.34;5087555;28;913;-76
2022/10/31 12:28:31;;;;;;;;;;;;;;;21.76;31.35;98339.47;5055004;28;1035;-74
2022/10/31 12:31:11;;;;;;;;;;;;;;;21.66;31.42;98340.50;5055930;28;925;-80
2022/10/31 12:33:48;;;;;;;;;;;;;;;21.62;31.58;98344.63;5088986;28;824;-79
2022/10/31 12:36:20;;;;;;;;;;;;;;;21.75;31.24;98343.50;5057084;28;719;-80
2022/10/31 12:38:51;;;;;;;;;;;;;;;22.03;30.67;98341.31;5055140;28;866;-80
2022/10/31 12:41:53;;;;;;;;;;;;;;;22.08;30.58;98340.78;5055529;28;775;-82
2022/10/31 12:44:30;;;;;;;;;;;;;;;22.01;30.73;98350.22;5056932;28;763;-86
2022/10/31 12:47:04;;;;;;;;;;;;;;;22.10;30.44;98347.63;5057720;28;1075;-86
2022/10/31 12:49:42;;;;;;;;;;;;;;;22.14;30.56;98353.22;5058198;28;1223;-84
2022/10/31 12:52:20;;;;;;;;;;;;;;;21.88;30.79;98345.69;5059025;28;1909;-83
2022/10/31 12:54:48;;;;;;;;;;;;;;;21.92;30.83;98349.25;5058670;28;1103;-83
2022/10/31 12:57:21;;;;;;;;;;;;;;;22.25;30.16;98342.41;5058742;28;1019;-81
2022/10/31 13:00:06;;;;;;;;;;;;;;;22.12;30.54;98352.03;5058094;28;873;-79
2022/10/31 13:02:50;;;;;;;;;;;;;;;22.25;30.18;98342.41;5021196;28;965;-78
2022/10/31 13:05:17;;;;;;;;;;;;;;;22.17;30.53;98349.47;5037961;28;975;-77
2022/10/31 13:08:09;;;;;;;;;;;;;;;22.23;30.37;98353.41;5020718;28;889;-81
2022/10/31 13:10:38;;;;;;;;;;;;;;;22.52;29.84;98349.88;5034751;28;940;-80
2022/10/31 13:13:17;;;;;;;;;;;;;;;22.25;30.45;98348.09;5037031;28;1987;-82
2022/10/31 13:16:09;;;;;;;;;;;;;;;22.23;30.41;98356.25;5018069;28;928;-82
2022/10/31 13:18:45;;;;;;;;;;;;;;;21.92;30.85;98343.59;4905092;29;1107;-82
2022/10/31 13:21:18;;;;;;;;;;;;;;;22.11;30.60;98348.41;4883371;29;1345;-75
2022/10/31 13:23:44;;;;;;;;;;;;;;;22.28;30.14;98357.75;4882777;29;928;-75
2022/10/31 13:26:11;;;;;;;;;;;;;;;22.43;29.97;98346.84;4897808;29;1005;-75
2022/10/31 13:28:49;;;;;;;;;;;;;;;22.36;30.23;98348.63;4898015;29;925;-76
2022/10/31 13:31:14;;;;;;;;;;;;;;;22.22;30.69;98354.63;4882382;29;1903;-76
2022/10/31 13:33:39;;;;;;;;;;;;;;;22.54;30.40;98353.06;4882014;29;1035;-74
2022/10/31 13:36:05;;;;;;;;;;;;;;;22.12;31.16;98358.50;4882315;29;875;-76
2022/10/31 13:38:34;;;;;;;;;;;;;;;22.12;31.13;98358.50;4884621;29;951;-77